createdAt,value
2019-01-18T00:02:05.940Z,4.15
2019-01-18T00:04:32.076Z,5.70
2019-01-18T00:06:58.116Z,4.37
2019-01-18T00:09:24.289Z,4.08
2019-01-18T00:11:50.481Z,5.75
2019-01-18T00:14:16.530Z,5.45
2019-01-18T00:16:42.589Z,5.42
2019-01-18T00:19:08.818Z,4.35
2019-01-18T00:21:34.874Z,5.70
2019-01-18T00:24:01.261Z,7.75
2019-01-18T00:26:27.353Z,6.33
2019-01-18T00:28:53.912Z,7.00
2019-01-18T00:31:19.966Z,7.00
2019-01-18T00:33:46.033Z,5.60
2019-01-18T00:36:12.125Z,6.83
2019-01-18T00:38:38.216Z,6.72
2019-01-18T00:41:04.421Z,6.17
2019-01-18T00:43:31.049Z,5.47
2019-01-18T00:45:57.272Z,7.30
2019-01-18T00:48:23.310Z,4.60
2019-01-18T00:50:49.623Z,5.70
2019-01-18T00:53:15.782Z,5.03
2019-01-18T00:55:41.850Z,3.90
2019-01-18T00:58:07.917Z,4.85
2019-01-18T01:00:34.115Z,4.95
2019-01-18T01:03:00.263Z,6.83
2019-01-18T01:05:27.111Z,4.10
2019-01-18T01:07:53.356Z,5.58
2019-01-18T01:10:19.490Z,4.78
2019-01-18T01:12:45.560Z,5.33
2019-01-18T01:15:14.728Z,4.90
2019-01-18T01:17:41.413Z,6.70
2019-01-18T01:20:09.573Z,8.25
2019-01-18T01:22:35.659Z,5.30
2019-01-18T01:25:02.610Z,7.67
2019-01-18T01:27:28.716Z,5.12
2019-01-18T01:29:54.765Z,4.92
2019-01-18T01:32:20.836Z,5.95
2019-01-18T01:34:47.084Z,8.80
2019-01-18T01:37:13.136Z,8.50
2019-01-18T01:39:39.201Z,7.50
2019-01-18T01:42:05.375Z,6.37
2019-01-18T01:44:31.776Z,5.12
2019-01-18T01:46:57.832Z,5.50
2019-01-18T01:49:23.890Z,4.12
2019-01-18T01:51:50.171Z,5.85
2019-01-18T01:54:16.645Z,7.97
2019-01-18T01:56:42.677Z,6.28
2019-01-18T01:59:08.795Z,4.70
2019-01-18T02:01:35.016Z,8.50
2019-01-18T02:04:01.205Z,7.00
2019-01-18T02:06:27.473Z,5.70
2019-01-18T02:08:53.702Z,5.00
2019-01-18T02:11:19.788Z,5.73
2019-01-18T02:13:45.830Z,5.40
2019-01-18T02:16:11.943Z,6.00
2019-01-18T02:18:38.062Z,5.25
2019-01-18T02:21:04.256Z,6.40
2019-01-18T02:23:30.331Z,2.50
2019-01-18T02:25:56.675Z,5.30
2019-01-18T02:28:22.859Z,6.28
2019-01-18T02:30:49.086Z,4.87
2019-01-18T02:33:15.139Z,4.10
2019-01-18T02:35:41.262Z,7.53
2019-01-18T02:38:07.352Z,4.25
2019-01-18T02:40:33.756Z,4.42
2019-01-18T02:42:59.837Z,5.40
2019-01-18T02:45:25.943Z,6.00
2019-01-18T02:47:51.999Z,5.30
2019-01-18T02:50:18.337Z,4.85
2019-01-18T02:52:44.621Z,9.28
2019-01-18T02:55:11.293Z,6.62
2019-01-18T02:57:37.604Z,6.12
2019-01-18T03:00:13.542Z,6.55
2019-01-18T03:02:41.828Z,5.40
2019-01-18T03:05:10.194Z,5.67
2019-01-18T03:07:36.352Z,5.50
2019-01-18T03:10:09.589Z,10.10
2019-01-18T03:12:35.659Z,5.20
2019-01-18T03:15:03.992Z,5.95
2019-01-18T03:17:30.361Z,4.55
2019-01-18T03:19:56.472Z,4.95
2019-01-18T03:22:22.656Z,5.20
2019-01-18T03:24:48.895Z,6.42
2019-01-18T03:27:15.065Z,5.50
2019-01-18T03:29:41.537Z,8.50
2019-01-18T03:32:07.607Z,5.47
2019-01-18T03:34:33.655Z,8.28
2019-01-18T03:36:59.754Z,6.85
2019-01-18T03:39:26.245Z,7.10
2019-01-18T03:41:52.288Z,4.10
2019-01-18T03:44:18.582Z,9.13
2019-01-18T03:46:44.606Z,5.90
2019-01-18T03:49:10.658Z,4.60
2019-01-18T03:51:36.780Z,4.42
2019-01-18T03:54:03.394Z,7.62
2019-01-18T03:56:29.460Z,4.20
2019-01-18T03:58:55.596Z,8.90
2019-01-18T04:01:22.035Z,4.03
2019-01-18T04:03:48.109Z,4.15
2019-01-18T04:06:14.180Z,4.72
2019-01-18T04:08:40.392Z,7.00
2019-01-18T04:11:06.439Z,8.97
2019-01-18T04:13:32.476Z,8.03
2019-01-18T04:15:58.591Z,5.70
2019-01-18T04:18:24.661Z,5.05
2019-01-18T04:20:50.818Z,4.70
2019-01-18T04:23:16.980Z,5.00
2019-01-18T04:25:43.255Z,2.40
2019-01-18T04:28:09.297Z,5.70
2019-01-18T04:30:35.377Z,8.73
2019-01-18T04:33:02.365Z,6.90
2019-01-18T04:35:28.406Z,11.12
2019-01-18T04:37:55.269Z,3.83
2019-01-18T04:40:26.182Z,7.83
2019-01-18T04:42:52.474Z,5.00
2019-01-18T04:45:19.227Z,2.85
2019-01-18T04:47:45.328Z,4.95
2019-01-18T04:50:13.808Z,3.42
2019-01-18T04:52:40.012Z,5.90
2019-01-18T04:55:07.791Z,4.40
2019-01-18T04:57:34.010Z,5.30
2019-01-18T05:00:00.224Z,3.50
2019-01-18T05:02:26.339Z,4.20
2019-01-18T05:04:52.469Z,8.35
2019-01-18T05:07:18.548Z,7.67
2019-01-18T05:09:44.639Z,4.47
2019-01-18T05:12:10.751Z,9.40
2019-01-18T05:14:36.821Z,3.80
2019-01-18T05:17:03.138Z,5.70
2019-01-18T05:19:29.422Z,5.72
2019-01-18T05:21:55.618Z,9.78
2019-01-18T05:24:23.065Z,5.03
2019-01-18T05:26:49.290Z,3.53
2019-01-18T05:29:20.841Z,5.37
2019-01-18T05:31:47.637Z,3.65
2019-01-18T05:34:14.205Z,7.03
2019-01-18T05:36:40.725Z,6.70
2019-01-18T05:39:07.281Z,6.75
2019-01-18T05:41:33.442Z,5.42
2019-01-18T05:43:59.502Z,5.30
2019-01-18T05:46:25.591Z,7.40
2019-01-18T05:48:51.656Z,3.50
2019-01-18T05:51:17.801Z,3.75
2019-01-18T05:53:43.835Z,7.15
2019-01-18T05:56:10.037Z,7.28
2019-01-18T05:58:36.216Z,5.80
2019-01-18T06:01:03.648Z,7.40
2019-01-18T06:03:29.852Z,5.92
2019-01-18T06:05:56.003Z,6.83
2019-01-18T06:08:24.154Z,9.33
2019-01-18T06:10:50.243Z,20.50
2019-01-18T06:13:17.481Z,7.55
2019-01-18T06:15:43.725Z,10.70
2019-01-18T06:18:12.045Z,8.05
2019-01-18T06:20:39.385Z,13.03
2019-01-18T06:23:05.495Z,7.40
2019-01-18T06:25:31.660Z,5.22
2019-01-18T06:27:57.851Z,6.92
2019-01-18T06:30:24.232Z,7.37
2019-01-18T06:32:50.350Z,5.17
2019-01-18T06:35:16.986Z,6.33
2019-01-18T06:37:43.199Z,5.65
2019-01-18T06:40:16.825Z,6.22
2019-01-18T06:42:42.928Z,5.27
2019-01-18T06:45:15.698Z,4.37
2019-01-18T06:47:42.573Z,3.42
2019-01-18T06:50:14.037Z,5.10
2019-01-18T06:52:40.419Z,8.18
2019-01-18T06:55:09.012Z,5.83
2019-01-18T06:57:35.313Z,57.08
2019-01-18T07:00:01.396Z,14.80
2019-01-18T07:02:28.658Z,8.10
2019-01-18T07:04:54.743Z,5.95
2019-01-18T07:07:20.975Z,6.70
2019-01-18T07:09:47.059Z,7.30
2019-01-18T07:12:13.312Z,8.48
2019-01-18T07:14:39.408Z,10.48
2019-01-18T07:17:05.700Z,6.90
2019-01-18T07:19:31.779Z,9.38
2019-01-18T07:21:58.006Z,3.60
2019-01-18T07:24:24.116Z,6.12
2019-01-18T07:26:56.606Z,5.37
2019-01-18T07:29:22.729Z,3.60
2019-01-18T07:31:48.871Z,6.42
2019-01-18T07:34:15.053Z,3.20
2019-01-18T07:36:41.113Z,5.27
2019-01-18T07:39:07.167Z,4.65
2019-01-18T07:41:33.433Z,8.58
2019-01-18T07:43:59.677Z,5.30
2019-01-18T07:46:25.763Z,7.85
2019-01-18T07:48:52.073Z,7.97
2019-01-18T07:51:18.244Z,5.72
2019-01-18T07:53:44.660Z,5.90
2019-01-18T07:56:10.862Z,4.80
2019-01-18T07:58:45.487Z,4.30
2019-01-18T08:01:11.669Z,4.65
2019-01-18T08:03:37.884Z,6.00
2019-01-18T08:06:04.141Z,8.90
2019-01-18T08:08:30.331Z,5.33
2019-01-18T08:10:56.486Z,4.87
2019-01-18T08:13:22.672Z,8.87
2019-01-18T08:15:51.902Z,6.73
2019-01-18T08:18:18.060Z,5.67
2019-01-18T08:20:44.351Z,6.62
2019-01-18T08:23:10.480Z,9.40
2019-01-18T08:25:37.033Z,7.97
2019-01-18T08:28:03.411Z,5.83
2019-01-18T08:30:29.861Z,6.90
2019-01-18T08:32:56.193Z,7.83
2019-01-18T08:35:23.456Z,8.90
2019-01-18T08:37:49.940Z,9.80
2019-01-18T08:40:33.132Z,13.03
2019-01-18T08:42:59.278Z,23.85
2019-01-18T08:45:34.833Z,25.07
2019-01-18T08:48:01.225Z,8.90
2019-01-18T08:50:27.789Z,7.72
2019-01-18T08:52:54.118Z,7.55
2019-01-18T08:55:20.238Z,7.30
2019-01-18T08:57:46.292Z,7.72
2019-01-18T09:00:16.334Z,7.08
2019-01-18T09:02:42.435Z,7.33
2019-01-18T09:05:13.731Z,8.15
2019-01-18T09:07:39.865Z,5.53
2019-01-18T09:10:12.094Z,8.25
2019-01-18T09:12:38.159Z,5.95
2019-01-18T09:15:07.234Z,10.70
2019-01-18T09:17:33.281Z,7.53
2019-01-18T09:19:59.310Z,6.87
2019-01-18T09:22:25.790Z,11.35
2019-01-18T09:24:51.877Z,6.65
2019-01-18T09:27:17.968Z,6.75
2019-01-18T09:29:44.087Z,9.23
2019-01-18T09:32:10.313Z,7.00
2019-01-18T09:34:36.362Z,10.13
2019-01-18T09:37:02.905Z,6.08
2019-01-18T09:39:29.073Z,15.43
2019-01-18T09:41:55.128Z,9.83
2019-01-18T09:44:21.196Z,8.83
2019-01-18T09:46:47.580Z,9.40
2019-01-18T09:49:13.637Z,10.53
2019-01-18T09:51:39.759Z,12.65
2019-01-18T09:54:06.021Z,9.10
2019-01-18T09:56:32.148Z,11.18
2019-01-18T09:58:58.208Z,14.80
2019-01-18T10:01:24.345Z,8.38
2019-01-18T10:03:50.421Z,8.75
2019-01-18T10:06:16.512Z,10.18
2019-01-18T10:08:42.545Z,11.23
2019-01-18T10:11:08.622Z,11.33
2019-01-18T10:13:34.662Z,11.63
2019-01-18T10:16:00.693Z,16.10
2019-01-18T10:18:27.077Z,23.57
2019-01-18T10:20:53.130Z,9.97
2019-01-18T10:23:19.167Z,10.50
2019-01-18T10:25:45.210Z,11.05
2019-01-18T10:28:13.509Z,8.90
2019-01-18T10:30:39.840Z,13.68
2019-01-18T10:33:05.864Z,10.00
2019-01-18T10:35:31.943Z,11.00
2019-01-18T10:37:58.339Z,11.35
2019-01-18T10:40:24.495Z,15.80
2019-01-18T10:42:50.759Z,9.78
2019-01-18T10:45:18.201Z,12.25
2019-01-18T10:47:44.955Z,10.60
2019-01-18T10:50:23.006Z,9.30
2019-01-18T10:52:49.497Z,8.28
2019-01-18T10:55:15.671Z,14.90
2019-01-18T10:57:42.197Z,8.75
2019-01-18T11:00:23.783Z,14.10
2019-01-18T11:02:50.857Z,9.15
2019-01-18T11:05:17.379Z,6.97
2019-01-18T11:07:43.689Z,8.60
2019-01-18T11:10:11.563Z,11.57
2019-01-18T11:12:37.690Z,9.18
2019-01-18T11:15:09.672Z,9.73
2019-01-18T11:17:35.755Z,10.05
2019-01-18T11:20:04.493Z,48.52
2019-01-18T11:22:30.579Z,45.40
2019-01-18T11:24:56.630Z,13.57
2019-01-18T11:27:22.772Z,11.12
2019-01-18T11:29:49.083Z,9.00
2019-01-18T11:32:15.181Z,11.35
2019-01-18T11:34:41.222Z,8.55
2019-01-18T11:37:07.432Z,12.83
2019-01-18T11:39:33.844Z,9.33
2019-01-18T11:41:59.912Z,7.72
2019-01-18T11:44:25.976Z,12.20
2019-01-18T11:46:52.036Z,10.28
2019-01-18T11:49:18.175Z,8.63
2019-01-18T11:51:44.311Z,12.10
2019-01-18T11:54:10.381Z,12.68
2019-01-18T11:56:36.452Z,8.28
2019-01-18T11:59:02.690Z,9.83
2019-01-18T12:01:28.740Z,11.55
2019-01-18T12:03:55.033Z,7.97
2019-01-18T12:06:21.132Z,8.63
2019-01-18T12:08:47.196Z,12.45
2019-01-18T12:11:13.347Z,9.85
2019-01-18T12:13:39.419Z,8.43
2019-01-18T12:16:05.724Z,10.53
2019-01-18T12:18:32.089Z,7.00
2019-01-18T12:20:58.267Z,8.37
2019-01-18T12:23:24.322Z,9.10
2019-01-18T12:25:50.393Z,9.38
2019-01-18T12:28:16.486Z,8.83
2019-01-18T12:30:42.614Z,7.80
2019-01-18T12:33:08.667Z,7.05
2019-01-18T12:35:34.796Z,6.92
2019-01-18T12:38:00.850Z,7.62
2019-01-18T12:40:26.950Z,6.10
2019-01-18T12:42:53.270Z,10.37
2019-01-18T12:45:21.403Z,7.20
2019-01-18T12:47:47.449Z,9.15
2019-01-18T12:50:17.379Z,10.43
2019-01-18T12:52:43.514Z,8.13
2019-01-18T12:55:09.690Z,11.00
2019-01-18T12:57:36.223Z,13.95
2019-01-18T13:00:06.120Z,10.28
2019-01-18T13:02:35.380Z,8.15
2019-01-18T13:05:00.661Z,9.88
2019-01-18T13:07:26.812Z,9.60
2019-01-18T13:09:52.957Z,13.03
2019-01-18T13:12:19.224Z,14.90
2019-01-18T13:14:45.280Z,15.43
2019-01-18T13:17:11.381Z,14.70
2019-01-18T13:19:37.425Z,10.32
2019-01-18T13:22:03.687Z,10.35
2019-01-18T13:24:29.946Z,11.00
2019-01-18T13:26:56.032Z,7.83
2019-01-18T13:29:22.239Z,9.65
2019-01-18T13:31:48.301Z,6.83
2019-01-18T13:34:14.514Z,7.97
2019-01-18T13:36:40.751Z,10.18
2019-01-18T13:39:06.991Z,7.55
2019-01-18T13:41:33.034Z,9.40
2019-01-18T13:43:59.114Z,11.12
2019-01-18T13:46:25.185Z,10.20
2019-01-18T13:48:52.378Z,7.62
2019-01-18T13:51:18.426Z,7.70
2019-01-18T13:53:44.992Z,12.40
2019-01-18T13:56:11.268Z,7.93
2019-01-18T13:58:37.431Z,7.87
2019-01-18T14:01:03.517Z,9.30
2019-01-18T14:03:29.873Z,5.37
2019-01-18T14:05:55.993Z,13.03
2019-01-18T14:08:22.136Z,9.50
2019-01-18T14:10:48.317Z,6.30
2019-01-18T14:13:14.450Z,7.08
2019-01-18T14:15:43.541Z,8.03
2019-01-18T14:18:09.681Z,9.80
2019-01-18T14:20:35.736Z,10.60
2019-01-18T14:23:01.774Z,12.18
2019-01-18T14:25:28.011Z,8.30
2019-01-18T14:27:54.361Z,10.00
2019-01-18T14:30:23.502Z,8.15
2019-01-18T14:32:55.369Z,9.63
2019-01-18T14:35:17.656Z,12.50
2019-01-18T14:37:43.811Z,7.83
2019-01-18T14:40:13.068Z,7.47
2019-01-18T14:42:39.360Z,12.43
2019-01-18T14:45:09.232Z,10.28
2019-01-18T14:47:35.305Z,10.00
2019-01-18T14:50:01.603Z,9.63
2019-01-18T14:52:27.677Z,12.30
2019-01-18T14:54:53.742Z,9.35
2019-01-18T14:57:19.793Z,10.13
2019-01-18T14:59:45.832Z,9.18
2019-01-18T15:02:11.993Z,26.60
2019-01-18T15:04:39.396Z,13.88
2019-01-18T15:07:05.533Z,15.20
2019-01-18T15:09:31.743Z,10.23
2019-01-18T15:11:57.821Z,11.28
2019-01-18T15:14:23.899Z,12.45
2019-01-18T15:16:49.979Z,12.98
2019-01-18T15:19:16.029Z,14.78
2019-01-18T15:21:42.164Z,16.15
2019-01-18T15:24:08.220Z,16.15
2019-01-18T15:26:34.315Z,14.85
2019-01-18T15:29:00.400Z,18.45
2019-01-18T15:31:26.694Z,12.23
2019-01-18T15:33:52.740Z,16.95
2019-01-18T15:36:18.807Z,16.90
2019-01-18T15:38:44.866Z,13.07
2019-01-18T15:41:10.977Z,17.77
2019-01-18T15:43:37.049Z,13.15
2019-01-18T15:46:03.086Z,12.75
2019-01-18T15:48:29.113Z,15.58
2019-01-18T15:50:55.292Z,11.50
2019-01-18T15:53:21.430Z,11.22
2019-01-18T15:55:47.601Z,9.30
2019-01-18T15:58:13.756Z,11.18
2019-01-18T16:00:41.227Z,10.23
2019-01-18T16:03:07.756Z,8.70
2019-01-18T16:05:33.944Z,14.45
2019-01-18T16:08:00.009Z,10.05
2019-01-18T16:10:26.061Z,12.58
2019-01-18T16:12:52.793Z,10.60
2019-01-18T16:15:25.714Z,9.20
2019-01-18T16:17:51.736Z,10.35
2019-01-18T16:20:20.272Z,10.68
2019-01-18T16:22:47.026Z,7.30
2019-01-18T16:25:23.122Z,9.58
2019-01-18T16:27:49.152Z,10.23
2019-01-18T16:30:20.127Z,7.80
2019-01-18T16:32:46.303Z,13.93
2019-01-18T16:35:14.248Z,10.23
2019-01-18T16:37:40.470Z,9.93
2019-01-18T16:40:13.136Z,9.87
2019-01-18T16:42:39.965Z,10.18
2019-01-18T16:45:11.184Z,8.75
2019-01-18T16:47:37.969Z,11.45
2019-01-18T16:50:07.702Z,12.58
2019-01-18T16:52:33.741Z,15.50
2019-01-18T16:54:59.824Z,8.63
2019-01-18T16:57:25.880Z,19.27
2019-01-18T16:59:51.916Z,13.53
2019-01-18T17:02:18.012Z,10.95
2019-01-18T17:04:44.069Z,15.72
2019-01-18T17:07:11.146Z,9.70
2019-01-18T17:09:37.603Z,12.68
2019-01-18T17:12:03.637Z,13.00
2019-01-18T17:14:29.668Z,8.98
2019-01-18T17:16:55.724Z,10.90
2019-01-18T17:19:21.769Z,8.13
2019-01-18T17:21:47.836Z,11.48
2019-01-18T17:24:13.884Z,31.25
2019-01-18T17:26:40.184Z,21.97
2019-01-18T17:29:06.216Z,22.67
2019-01-18T17:31:32.438Z,13.25
2019-01-18T17:33:58.477Z,9.15
2019-01-18T17:36:26.510Z,14.23
2019-01-18T17:39:14.175Z,15.23
2019-01-18T17:41:46.602Z,11.75
2019-01-18T17:44:38.005Z,13.72
2019-01-18T17:47:13.809Z,13.62
2019-01-18T17:49:58.555Z,10.88
2019-01-18T17:52:46.441Z,11.65
2019-01-18T17:55:18.913Z,10.03
2019-01-18T17:57:57.570Z,9.90
2019-01-18T18:00:36.733Z,11.68
2019-01-18T18:03:12.964Z,13.43
2019-01-18T18:05:59.617Z,12.28
2019-01-18T18:08:29.497Z,13.53
2019-01-18T18:11:11.349Z,12.95
2019-01-18T18:13:54.779Z,15.78
2019-01-18T18:16:34.023Z,13.10
2019-01-18T18:19:33.861Z,15.20
2019-01-18T18:22:21.982Z,15.83
2019-01-18T18:25:00.415Z,13.03
2019-01-18T18:27:36.402Z,14.78
2019-01-18T18:30:12.246Z,17.97
2019-01-18T18:32:45.222Z,17.80
2019-01-18T18:35:36.387Z,13.10
2019-01-18T18:38:23.005Z,14.60
2019-01-18T18:41:13.991Z,15.70
2019-01-18T18:43:58.777Z,13.43
2019-01-18T18:46:45.730Z,15.72
2019-01-18T18:49:27.759Z,14.73
2019-01-18T18:51:52.921Z,15.60
2019-01-18T18:54:45.365Z,17.40
2019-01-18T18:57:21.280Z,15.93
2019-01-18T19:00:10.228Z,16.23
2019-01-18T19:02:46.228Z,12.30
2019-01-18T19:05:22.476Z,17.65
2019-01-18T19:07:58.632Z,23.50
2019-01-18T19:10:56.033Z,52.10
2019-01-18T19:13:31.878Z,73.57
2019-01-18T19:16:08.670Z,137.00
2019-01-18T19:18:50.630Z,99.20
2019-01-18T19:21:32.821Z,149.87
2019-01-18T19:24:11.422Z,78.75
2019-01-18T19:27:05.512Z,33.15
2019-01-18T19:29:35.388Z,19.45
2019-01-18T19:32:14.595Z,17.60
2019-01-18T19:34:47.445Z,19.67
2019-01-18T19:37:29.480Z,19.40
2019-01-18T19:40:05.638Z,14.00
2019-01-18T19:42:41.381Z,17.17
2019-01-18T19:45:21.195Z,19.00
2019-01-18T19:48:03.659Z,17.62
2019-01-18T19:50:56.712Z,17.40
2019-01-18T19:53:29.763Z,18.02
2019-01-18T19:56:08.080Z,15.53
2019-01-18T19:58:56.183Z,17.90
2019-01-18T20:01:31.953Z,15.43
2019-01-18T20:04:32.853Z,17.05
2019-01-18T20:07:07.415Z,19.05
2019-01-18T20:09:43.344Z,16.73
2019-01-18T20:12:44.443Z,16.80
2019-01-18T20:15:20.577Z,20.35
2019-01-18T20:18:05.310Z,15.97
2019-01-18T20:20:35.166Z,15.53
2019-01-18T20:23:26.349Z,18.77
2019-01-18T20:26:04.664Z,19.82
2019-01-18T20:28:46.047Z,17.25
2019-01-18T20:31:34.334Z,19.35
2019-01-18T20:34:21.159Z,16.90
2019-01-18T20:37:00.470Z,19.73
2019-01-18T20:39:47.163Z,18.98
2019-01-18T20:42:44.601Z,16.67
2019-01-18T20:45:22.961Z,20.52
2019-01-18T20:48:09.433Z,21.55
2019-01-18T20:50:59.864Z,19.77
2019-01-18T20:53:35.587Z,19.48
2019-01-18T20:56:11.104Z,20.30
2019-01-18T20:58:50.493Z,25.55
2019-01-18T21:01:27.393Z,24.63
2019-01-18T21:04:15.684Z,24.67
2019-01-18T21:07:05.418Z,18.70
2019-01-18T21:10:03.301Z,17.62
2019-01-18T21:13:03.860Z,22.00
2019-01-18T21:15:42.825Z,18.45
2019-01-18T21:18:13.178Z,16.35
2019-01-18T21:21:01.347Z,20.52
2019-01-18T21:23:48.389Z,20.27
2019-01-18T21:26:46.958Z,21.97
2019-01-18T21:29:31.522Z,16.85
2019-01-18T21:32:04.561Z,19.98
2019-01-18T21:34:37.643Z,20.05
2019-01-18T21:37:22.871Z,20.57
2019-01-18T21:39:58.991Z,21.10
2019-01-18T21:42:51.729Z,18.67
2019-01-18T21:45:27.874Z,21.20
2019-01-18T21:48:17.598Z,15.65
2019-01-18T21:50:50.476Z,21.75
2019-01-18T21:53:29.001Z,19.75
2019-01-18T21:56:08.546Z,19.90
2019-01-18T21:58:47.421Z,20.23
2019-01-18T22:01:29.929Z,21.80
2019-01-18T22:04:08.673Z,18.50
2019-01-18T22:06:50.817Z,20.05
2019-01-18T22:09:30.947Z,20.45
2019-01-18T22:12:03.857Z,21.15
2019-01-18T22:15:05.924Z,21.75
2019-01-18T22:17:49.522Z,21.80
2019-01-18T22:20:25.655Z,19.65
2019-01-18T22:23:10.892Z,18.20
2019-01-18T22:26:13.086Z,17.45
2019-01-18T22:28:42.942Z,19.13
2019-01-18T22:31:29.638Z,17.85
2019-01-18T22:34:02.660Z,16.80
2019-01-18T22:37:04.605Z,21.12
2019-01-18T22:39:49.349Z,18.27
2019-01-18T22:42:22.233Z,17.75
2019-01-18T22:45:13.321Z,21.80
2019-01-18T22:47:43.155Z,19.05
2019-01-18T22:50:22.376Z,17.02
2019-01-18T22:53:11.742Z,17.87
2019-01-18T22:55:41.653Z,15.05
2019-01-18T22:58:17.528Z,20.00
2019-01-18T23:00:55.076Z,17.02
2019-01-18T23:03:30.999Z,19.95
2019-01-18T23:06:06.945Z,19.27
2019-01-18T23:08:43.189Z,17.50
2019-01-18T23:11:21.993Z,18.60
2019-01-18T23:14:11.772Z,19.75
2019-01-18T23:16:51.604Z,15.83
2019-01-18T23:19:30.161Z,18.27
2019-01-18T23:22:06.277Z,15.83
2019-01-18T23:24:38.909Z,14.50
2019-01-18T23:27:20.500Z,18.05
2019-01-18T23:29:53.195Z,15.73
2019-01-18T23:32:31.636Z,16.82
2019-01-18T23:35:07.437Z,16.30
2019-01-18T23:37:46.578Z,14.25
2019-01-18T23:40:16.442Z,17.15
2019-01-18T23:42:58.337Z,21.77
2019-01-18T23:45:54.082Z,24.27
2019-01-18T23:48:33.030Z,20.55
2019-01-18T23:51:18.543Z,22.62
2019-01-18T23:53:51.384Z,21.70
2019-01-18T23:56:21.684Z,20.23
2019-01-18T23:58:51.546Z,19.27
